sensor_id;sensor_type;location;lat;lon;timestamp;P1;durP1;ratioP1;P2;durP2;ratioP2
36373;SDS011;22399;51.346;12.372;2023-02-21T00:01:41;6.60;;;1.90;;
36373;SDS011;22399;51.346;12.372;2023-02-21T00:04:28;4.32;;;2.10;;
36373;SDS011;22399;51.346;12.372;2023-02-21T00:07:15;5.57;;;1.45;;
36373;SDS011;22399;51.346;12.372;2023-02-21T00:10:02;9.43;;;2.13;;
36373;SDS011;22399;51.346;12.372;2023-02-21T00:12:49;9.10;;;1.90;;
36373;SDS011;22399;51.346;12.372;2023-02-21T00:15:35;8.80;;;2.45;;
36373;SDS011;22399;51.346;12.372;2023-02-21T00:18:21;4.95;;;1.38;;
36373;SDS011;22399;51.346;12.372;2023-02-21T00:21:07;6.03;;;1.95;;
36373;SDS011;22399;51.346;12.372;2023-02-21T00:23:54;5.90;;;2.70;;
36373;SDS011;22399;51.346;12.372;2023-02-21T00:26:39;8.00;;;2.30;;
36373;SDS011;22399;51.346;12.372;2023-02-21T00:29:26;4.15;;;1.98;;
36373;SDS011;22399;51.346;12.372;2023-02-21T00:32:12;4.40;;;1.83;;
36373;SDS011;22399;51.346;12.372;2023-02-21T00:34:58;4.28;;;1.95;;
36373;SDS011;22399;51.346;12.372;2023-02-21T00:37:43;4.57;;;1.73;;
36373;SDS011;22399;51.346;12.372;2023-02-21T00:40:34;7.20;;;2.10;;
36373;SDS011;22399;51.346;12.372;2023-02-21T00:43:26;6.32;;;2.53;;
36373;SDS011;22399;51.346;12.372;2023-02-21T00:46:12;6.72;;;2.40;;
36373;SDS011;22399;51.346;12.372;2023-02-21T00:48:58;8.18;;;2.17;;
36373;SDS011;22399;51.346;12.372;2023-02-21T00:51:44;6.50;;;2.35;;
36373;SDS011;22399;51.346;12.372;2023-02-21T00:54:30;6.25;;;1.90;;
36373;SDS011;22399;51.346;12.372;2023-02-21T01:00:03;7.22;;;2.63;;
36373;SDS011;22399;51.346;12.372;2023-02-21T01:02:52;4.72;;;1.42;;
36373;SDS011;22399;51.346;12.372;2023-02-21T01:05:38;4.70;;;1.77;;
36373;SDS011;22399;51.346;12.372;2023-02-21T01:08:23;12.05;;;2.13;;
36373;SDS011;22399;51.346;12.372;2023-02-21T01:11:12;5.95;;;1.70;;
36373;SDS011;22399;51.346;12.372;2023-02-21T01:14:00;5.22;;;1.88;;
36373;SDS011;22399;51.346;12.372;2023-02-21T01:16:46;4.38;;;1.67;;
36373;SDS011;22399;51.346;12.372;2023-02-21T01:19:38;8.98;;;1.92;;
36373;SDS011;22399;51.346;12.372;2023-02-21T01:22:24;4.97;;;1.45;;
36373;SDS011;22399;51.346;12.372;2023-02-21T01:25:10;4.68;;;1.55;;
36373;SDS011;22399;51.346;12.372;2023-02-21T01:27:57;4.72;;;1.77;;
36373;SDS011;22399;51.346;12.372;2023-02-21T01:30:45;4.20;;;1.73;;
36373;SDS011;22399;51.346;12.372;2023-02-21T01:33:33;4.95;;;1.92;;
36373;SDS011;22399;51.346;12.372;2023-02-21T01:36:21;4.95;;;2.05;;
36373;SDS011;22399;51.346;12.372;2023-02-21T01:41:53;6.55;;;2.28;;
36373;SDS011;22399;51.346;12.372;2023-02-21T01:44:39;4.45;;;1.92;;
36373;SDS011;22399;51.346;12.372;2023-02-21T01:47:27;4.10;;;1.88;;
36373;SDS011;22399;51.346;12.372;2023-02-21T01:50:15;6.13;;;2.05;;
36373;SDS011;22399;51.346;12.372;2023-02-21T01:53:06;5.65;;;1.92;;
36373;SDS011;22399;51.346;12.372;2023-02-21T01:55:54;5.03;;;2.08;;
36373;SDS011;22399;51.346;12.372;2023-02-21T01:58:41;11.40;;;2.60;;
36373;SDS011;22399;51.346;12.372;2023-02-21T02:01:32;7.45;;;2.13;;
36373;SDS011;22399;51.346;12.372;2023-02-21T02:04:24;5.47;;;2.17;;
36373;SDS011;22399;51.346;12.372;2023-02-21T02:07:10;10.95;;;2.38;;
36373;SDS011;22399;51.346;12.372;2023-02-21T02:09:56;5.32;;;1.83;;
36373;SDS011;22399;51.346;12.372;2023-02-21T02:12:51;6.97;;;2.70;;
36373;SDS011;22399;51.346;12.372;2023-02-21T02:15:40;5.43;;;2.20;;
36373;SDS011;22399;51.346;12.372;2023-02-21T02:18:29;6.88;;;2.30;;
36373;SDS011;22399;51.346;12.372;2023-02-21T02:27:32;6.00;;;2.28;;
36373;SDS011;22399;51.346;12.372;2023-02-21T02:36:25;10.05;;;2.70;;
36373;SDS011;22399;51.346;12.372;2023-02-21T02:38:59;11.57;;;3.83;;
36373;SDS011;22399;51.346;12.372;2023-02-21T02:41:34;11.57;;;3.35;;
36373;SDS011;22399;51.346;12.372;2023-02-21T02:44:14;9.75;;;3.20;;
36373;SDS011;22399;51.346;12.372;2023-02-21T02:46:47;7.88;;;3.30;;
36373;SDS011;22399;51.346;12.372;2023-02-21T02:49:18;9.48;;;3.00;;
36373;SDS011;22399;51.346;12.372;2023-02-21T02:51:51;9.93;;;2.97;;
36373;SDS011;22399;51.346;12.372;2023-02-21T02:54:23;8.32;;;3.10;;
36373;SDS011;22399;51.346;12.372;2023-02-21T02:56:52;11.23;;;3.00;;
36373;SDS011;22399;51.346;12.372;2023-02-21T02:59:21;11.70;;;3.15;;
36373;SDS011;22399;51.346;12.372;2023-02-21T03:07:56;6.55;;;2.35;;
36373;SDS011;22399;51.346;12.372;2023-02-21T03:10:34;14.02;;;3.63;;
36373;SDS011;22399;51.346;12.372;2023-02-21T03:13:11;11.43;;;3.80;;
36373;SDS011;22399;51.346;12.372;2023-02-21T03:15:46;8.23;;;3.03;;
36373;SDS011;22399;51.346;12.372;2023-02-21T03:18:18;9.15;;;3.97;;
36373;SDS011;22399;51.346;12.372;2023-02-21T03:20:52;12.68;;;3.70;;
36373;SDS011;22399;51.346;12.372;2023-02-21T03:23:26;8.25;;;3.25;;
36373;SDS011;22399;51.346;12.372;2023-02-21T03:25:58;11.02;;;3.53;;
36373;SDS011;22399;51.346;12.372;2023-02-21T03:28:30;9.40;;;3.53;;
36373;SDS011;22399;51.346;12.372;2023-02-21T03:31:02;9.68;;;3.85;;
36373;SDS011;22399;51.346;12.372;2023-02-21T03:33:32;21.02;;;3.83;;
36373;SDS011;22399;51.346;12.372;2023-02-21T03:36:05;10.35;;;3.58;;
36373;SDS011;22399;51.346;12.372;2023-02-21T03:38:36;10.80;;;4.07;;
36373;SDS011;22399;51.346;12.372;2023-02-21T03:41:06;13.20;;;4.20;;
36373;SDS011;22399;51.346;12.372;2023-02-21T03:43:37;13.60;;;4.57;;
36373;SDS011;22399;51.346;12.372;2023-02-21T03:46:05;14.45;;;4.45;;
36373;SDS011;22399;51.346;12.372;2023-02-21T03:48:34;13.95;;;4.68;;
36373;SDS011;22399;51.346;12.372;2023-02-21T03:51:12;14.65;;;4.22;;
36373;SDS011;22399;51.346;12.372;2023-02-21T03:53:43;12.27;;;4.35;;
36373;SDS011;22399;51.346;12.372;2023-02-21T03:56:12;12.43;;;4.07;;
36373;SDS011;22399;51.346;12.372;2023-02-21T03:58:58;13.65;;;4.38;;
36373;SDS011;22399;51.346;12.372;2023-02-21T04:01:27;14.02;;;4.32;;
36373;SDS011;22399;51.346;12.372;2023-02-21T04:03:56;17.95;;;4.97;;
36373;SDS011;22399;51.346;12.372;2023-02-21T04:06:25;14.43;;;4.38;;
36373;SDS011;22399;51.346;12.372;2023-02-21T04:08:55;18.15;;;4.95;;
36373;SDS011;22399;51.346;12.372;2023-02-21T04:11:25;21.85;;;5.32;;
36373;SDS011;22399;51.346;12.372;2023-02-21T04:13:53;18.48;;;3.75;;
36373;SDS011;22399;51.346;12.372;2023-02-21T04:16:22;11.55;;;4.07;;
36373;SDS011;22399;51.346;12.372;2023-02-21T04:18:52;18.65;;;4.72;;
36373;SDS011;22399;51.346;12.372;2023-02-21T04:21:20;11.05;;;4.13;;
36373;SDS011;22399;51.346;12.372;2023-02-21T04:23:52;14.55;;;4.05;;
36373;SDS011;22399;51.346;12.372;2023-02-21T04:26:23;12.57;;;4.43;;
36373;SDS011;22399;51.346;12.372;2023-02-21T04:28:52;13.43;;;3.67;;
36373;SDS011;22399;51.346;12.372;2023-02-21T04:31:20;13.70;;;4.38;;
36373;SDS011;22399;51.346;12.372;2023-02-21T04:33:50;14.88;;;4.47;;
36373;SDS011;22399;51.346;12.372;2023-02-21T04:36:36;18.58;;;5.15;;
36373;SDS011;22399;51.346;12.372;2023-02-21T04:39:06;13.23;;;5.47;;
36373;SDS011;22399;51.346;12.372;2023-02-21T04:41:37;10.10;;;4.38;;
36373;SDS011;22399;51.346;12.372;2023-02-21T04:44:07;13.90;;;4.28;;
36373;SDS011;22399;51.346;12.372;2023-02-21T04:46:36;9.80;;;3.78;;
36373;SDS011;22399;51.346;12.372;2023-02-21T04:49:05;10.73;;;3.47;;
36373;SDS011;22399;51.346;12.372;2023-02-21T04:51:34;17.25;;;5.03;;
36373;SDS011;22399;51.346;12.372;2023-02-21T04:54:02;12.65;;;4.20;;
36373;SDS011;22399;51.346;12.372;2023-02-21T04:56:33;18.33;;;5.22;;
36373;SDS011;22399;51.346;12.372;2023-02-21T04:59:04;11.52;;;3.92;;
36373;SDS011;22399;51.346;12.372;2023-02-21T05:01:33;16.23;;;5.78;;
36373;SDS011;22399;51.346;12.372;2023-02-21T05:04:01;11.35;;;4.45;;
36373;SDS011;22399;51.346;12.372;2023-02-21T05:06:30;13.48;;;4.53;;
36373;SDS011;22399;51.346;12.372;2023-02-21T05:08:59;20.05;;;5.18;;
36373;SDS011;22399;51.346;12.372;2023-02-21T05:11:28;18.83;;;4.70;;
36373;SDS011;22399;51.346;12.372;2023-02-21T05:14:00;13.82;;;4.18;;
36373;SDS011;22399;51.346;12.372;2023-02-21T05:16:30;11.02;;;4.38;;
36373;SDS011;22399;51.346;12.372;2023-02-21T05:18:58;13.32;;;4.53;;
36373;SDS011;22399;51.346;12.372;2023-02-21T05:21:28;12.98;;;4.45;;
36373;SDS011;22399;51.346;12.372;2023-02-21T05:24:00;15.77;;;4.13;;
36373;SDS011;22399;51.346;12.372;2023-02-21T05:26:32;15.05;;;5.20;;
36373;SDS011;22399;51.346;12.372;2023-02-21T05:29:03;17.52;;;5.10;;
36373;SDS011;22399;51.346;12.372;2023-02-21T05:31:33;16.27;;;5.20;;
36373;SDS011;22399;51.346;12.372;2023-02-21T05:34:01;14.18;;;4.40;;
36373;SDS011;22399;51.346;12.372;2023-02-21T05:36:29;21.38;;;4.40;;
36373;SDS011;22399;51.346;12.372;2023-02-21T05:38:58;23.85;;;6.13;;
36373;SDS011;22399;51.346;12.372;2023-02-21T05:41:26;15.68;;;5.85;;
36373;SDS011;22399;51.346;12.372;2023-02-21T05:43:55;15.65;;;5.40;;
36373;SDS011;22399;51.346;12.372;2023-02-21T05:46:24;14.00;;;4.72;;
36373;SDS011;22399;51.346;12.372;2023-02-21T05:48:56;16.65;;;4.78;;
36373;SDS011;22399;51.346;12.372;2023-02-21T05:51:27;19.83;;;5.85;;
36373;SDS011;22399;51.346;12.372;2023-02-21T05:54:02;15.57;;;6.07;;
36373;SDS011;22399;51.346;12.372;2023-02-21T05:56:30;21.20;;;5.10;;
36373;SDS011;22399;51.346;12.372;2023-02-21T05:59:05;16.97;;;5.43;;
36373;SDS011;22399;51.346;12.372;2023-02-21T06:01:34;18.30;;;6.35;;
36373;SDS011;22399;51.346;12.372;2023-02-21T06:04:04;16.65;;;5.25;;
36373;SDS011;22399;51.346;12.372;2023-02-21T06:06:33;16.60;;;4.80;;
36373;SDS011;22399;51.346;12.372;2023-02-21T06:09:03;19.27;;;5.10;;
36373;SDS011;22399;51.346;12.372;2023-02-21T06:11:35;18.75;;;5.68;;
36373;SDS011;22399;51.346;12.372;2023-02-21T06:14:06;23.75;;;6.45;;
36373;SDS011;22399;51.346;12.372;2023-02-21T06:16:39;15.48;;;5.10;;
36373;SDS011;22399;51.346;12.372;2023-02-21T06:19:10;30.50;;;5.93;;
36373;SDS011;22399;51.346;12.372;2023-02-21T06:21:39;18.23;;;5.05;;
36373;SDS011;22399;51.346;12.372;2023-02-21T06:24:08;19.27;;;6.35;;
36373;SDS011;22399;51.346;12.372;2023-02-21T06:26:37;16.73;;;5.50;;
36373;SDS011;22399;51.346;12.372;2023-02-21T06:29:06;20.98;;;5.50;;
36373;SDS011;22399;51.346;12.372;2023-02-21T06:31:35;18.70;;;5.70;;
36373;SDS011;22399;51.346;12.372;2023-02-21T06:34:03;17.60;;;5.15;;
36373;SDS011;22399;51.346;12.372;2023-02-21T06:36:33;19.40;;;6.05;;
36373;SDS011;22399;51.346;12.372;2023-02-21T06:39:02;17.08;;;6.10;;
36373;SDS011;22399;51.346;12.372;2023-02-21T06:41:31;21.55;;;6.05;;
36373;SDS011;22399;51.346;12.372;2023-02-21T06:43:59;14.93;;;5.00;;
36373;SDS011;22399;51.346;12.372;2023-02-21T06:46:28;16.92;;;5.60;;
36373;SDS011;22399;51.346;12.372;2023-02-21T06:48:57;22.27;;;5.38;;
36373;SDS011;22399;51.346;12.372;2023-02-21T06:51:26;16.50;;;5.35;;
36373;SDS011;22399;51.346;12.372;2023-02-21T06:53:57;19.55;;;6.10;;
36373;SDS011;22399;51.346;12.372;2023-02-21T06:56:25;15.43;;;6.00;;
36373;SDS011;22399;51.346;12.372;2023-02-21T06:58:54;20.10;;;6.15;;
36373;SDS011;22399;51.346;12.372;2023-02-21T07:01:23;18.65;;;6.20;;
36373;SDS011;22399;51.346;12.372;2023-02-21T07:03:53;17.13;;;5.65;;
36373;SDS011;22399;51.346;12.372;2023-02-21T07:06:23;19.45;;;6.03;;
36373;SDS011;22399;51.346;12.372;2023-02-21T07:08:56;23.38;;;6.75;;
36373;SDS011;22399;51.346;12.372;2023-02-21T07:11:25;17.42;;;5.68;;
36373;SDS011;22399;51.346;12.372;2023-02-21T07:13:55;20.00;;;6.07;;
36373;SDS011;22399;51.346;12.372;2023-02-21T07:16:25;26.13;;;6.18;;
36373;SDS011;22399;51.346;12.372;2023-02-21T07:18:53;23.27;;;5.70;;
36373;SDS011;22399;51.346;12.372;2023-02-21T07:21:21;19.00;;;5.57;;
36373;SDS011;22399;51.346;12.372;2023-02-21T07:23:51;25.55;;;6.30;;
36373;SDS011;22399;51.346;12.372;2023-02-21T07:26:21;15.75;;;6.10;;
36373;SDS011;22399;51.346;12.372;2023-02-21T07:28:50;14.85;;;5.32;;
36373;SDS011;22399;51.346;12.372;2023-02-21T07:31:19;15.50;;;5.60;;
36373;SDS011;22399;51.346;12.372;2023-02-21T07:33:48;24.45;;;6.88;;
36373;SDS011;22399;51.346;12.372;2023-02-21T07:36:16;18.58;;;6.15;;
36373;SDS011;22399;51.346;12.372;2023-02-21T07:38:45;28.20;;;6.20;;
36373;SDS011;22399;51.346;12.372;2023-02-21T07:41:13;19.63;;;5.57;;
36373;SDS011;22399;51.346;12.372;2023-02-21T07:43:44;16.10;;;5.18;;
36373;SDS011;22399;51.346;12.372;2023-02-21T07:46:13;14.65;;;5.03;;
36373;SDS011;22399;51.346;12.372;2023-02-21T07:48:43;18.52;;;5.25;;
36373;SDS011;22399;51.346;12.372;2023-02-21T07:51:11;17.05;;;5.38;;
36373;SDS011;22399;51.346;12.372;2023-02-21T07:53:40;18.48;;;6.43;;
36373;SDS011;22399;51.346;12.372;2023-02-21T07:56:09;11.75;;;4.93;;
36373;SDS011;22399;51.346;12.372;2023-02-21T07:58:37;17.48;;;5.00;;
36373;SDS011;22399;51.346;12.372;2023-02-21T08:01:07;18.70;;;4.95;;
36373;SDS011;22399;51.346;12.372;2023-02-21T08:03:36;14.38;;;5.35;;
36373;SDS011;22399;51.346;12.372;2023-02-21T08:06:06;13.20;;;4.43;;
36373;SDS011;22399;51.346;12.372;2023-02-21T08:08:36;10.60;;;4.47;;
36373;SDS011;22399;51.346;12.372;2023-02-21T08:11:04;15.75;;;4.05;;
36373;SDS011;22399;51.346;12.372;2023-02-21T08:13:33;17.20;;;5.45;;
36373;SDS011;22399;51.346;12.372;2023-02-21T08:16:01;19.30;;;5.22;;
36373;SDS011;22399;51.346;12.372;2023-02-21T08:18:31;19.80;;;5.13;;
36373;SDS011;22399;51.346;12.372;2023-02-21T08:21:00;15.38;;;5.20;;
36373;SDS011;22399;51.346;12.372;2023-02-21T08:23:28;14.20;;;4.30;;
36373;SDS011;22399;51.346;12.372;2023-02-21T08:25:57;15.52;;;5.32;;
36373;SDS011;22399;51.346;12.372;2023-02-21T08:28:26;14.48;;;5.53;;
36373;SDS011;22399;51.346;12.372;2023-02-21T08:30:54;17.15;;;5.35;;
36373;SDS011;22399;51.346;12.372;2023-02-21T08:33:22;17.45;;;5.10;;
36373;SDS011;22399;51.346;12.372;2023-02-21T08:35:53;16.45;;;5.25;;
36373;SDS011;22399;51.346;12.372;2023-02-21T08:38:21;18.80;;;5.65;;
36373;SDS011;22399;51.346;12.372;2023-02-21T08:40:50;14.70;;;5.65;;
36373;SDS011;22399;51.346;12.372;2023-02-21T08:43:21;13.48;;;4.82;;
36373;SDS011;22399;51.346;12.372;2023-02-21T08:45:50;12.85;;;4.45;;
36373;SDS011;22399;51.346;12.372;2023-02-21T08:48:18;17.88;;;5.47;;
36373;SDS011;22399;51.346;12.372;2023-02-21T08:50:47;21.08;;;6.78;;
36373;SDS011;22399;51.346;12.372;2023-02-21T08:53:19;18.73;;;5.53;;
36373;SDS011;22399;51.346;12.372;2023-02-21T08:55:47;22.02;;;5.80;;
36373;SDS011;22399;51.346;12.372;2023-02-21T08:58:15;17.08;;;5.18;;
36373;SDS011;22399;51.346;12.372;2023-02-21T09:00:43;13.77;;;5.70;;
36373;SDS011;22399;51.346;12.372;2023-02-21T09:03:12;17.13;;;5.65;;
36373;SDS011;22399;51.346;12.372;2023-02-21T09:05:41;17.92;;;6.03;;
36373;SDS011;22399;51.346;12.372;2023-02-21T09:08:09;26.00;;;4.95;;
36373;SDS011;22399;51.346;12.372;2023-02-21T09:10:39;16.95;;;5.93;;
36373;SDS011;22399;51.346;12.372;2023-02-21T09:15:41;19.70;;;5.55;;
36373;SDS011;22399;51.346;12.372;2023-02-21T09:18:10;22.58;;;6.88;;
36373;SDS011;22399;51.346;12.372;2023-02-21T09:20:39;18.92;;;5.53;;
36373;SDS011;22399;51.346;12.372;2023-02-21T09:23:08;15.30;;;5.28;;
36373;SDS011;22399;51.346;12.372;2023-02-21T09:25:36;20.05;;;6.03;;
36373;SDS011;22399;51.346;12.372;2023-02-21T09:28:06;19.88;;;6.15;;
36373;SDS011;22399;51.346;12.372;2023-02-21T09:30:34;12.88;;;5.72;;
36373;SDS011;22399;51.346;12.372;2023-02-21T09:33:03;16.80;;;4.80;;
36373;SDS011;22399;51.346;12.372;2023-02-21T09:35:32;17.92;;;5.13;;
36373;SDS011;22399;51.346;12.372;2023-02-21T09:38:00;18.15;;;5.85;;
36373;SDS011;22399;51.346;12.372;2023-02-21T09:40:32;12.85;;;4.93;;
36373;SDS011;22399;51.346;12.372;2023-02-21T09:43:10;14.70;;;5.50;;
36373;SDS011;22399;51.346;12.372;2023-02-21T09:45:41;15.60;;;5.10;;
36373;SDS011;22399;51.346;12.372;2023-02-21T09:48:12;23.23;;;6.65;;
36373;SDS011;22399;51.346;12.372;2023-02-21T09:50:44;16.35;;;5.10;;
36373;SDS011;22399;51.346;12.372;2023-02-21T09:53:16;14.63;;;4.15;;
36373;SDS011;22399;51.346;12.372;2023-02-21T09:55:49;21.38;;;4.90;;
36373;SDS011;22399;51.346;12.372;2023-02-21T09:58:22;11.60;;;4.00;;
36373;SDS011;22399;51.346;12.372;2023-02-21T10:00:51;12.95;;;4.43;;
36373;SDS011;22399;51.346;12.372;2023-02-21T10:03:31;18.52;;;4.78;;
36373;SDS011;22399;51.346;12.372;2023-02-21T10:06:09;12.40;;;4.72;;
36373;SDS011;22399;51.346;12.372;2023-02-21T10:08:47;14.27;;;5.25;;
36373;SDS011;22399;51.346;12.372;2023-02-21T10:11:25;11.65;;;4.45;;
36373;SDS011;22399;51.346;12.372;2023-02-21T10:14:09;16.00;;;4.97;;
36373;SDS011;22399;51.346;12.372;2023-02-21T10:16:46;14.07;;;4.53;;
36373;SDS011;22399;51.346;12.372;2023-02-21T10:19:20;16.15;;;4.63;;
36373;SDS011;22399;51.346;12.372;2023-02-21T10:21:57;13.85;;;4.15;;
36373;SDS011;22399;51.346;12.372;2023-02-21T10:24:29;12.45;;;4.65;;
36373;SDS011;22399;51.346;12.372;2023-02-21T10:26:58;15.85;;;4.28;;
36373;SDS011;22399;51.346;12.372;2023-02-21T10:29:33;16.73;;;4.80;;
36373;SDS011;22399;51.346;12.372;2023-02-21T10:32:08;13.27;;;4.55;;
36373;SDS011;22399;51.346;12.372;2023-02-21T10:34:36;13.05;;;3.90;;
36373;SDS011;22399;51.346;12.372;2023-02-21T10:37:14;9.80;;;3.92;;
36373;SDS011;22399;51.346;12.372;2023-02-21T10:39:55;13.73;;;4.15;;
36373;SDS011;22399;51.346;12.372;2023-02-21T10:42:30;18.75;;;5.45;;
36373;SDS011;22399;51.346;12.372;2023-02-21T10:45:05;16.80;;;4.68;;
36373;SDS011;22399;51.346;12.372;2023-02-21T10:47:39;16.60;;;4.65;;
36373;SDS011;22399;51.346;12.372;2023-02-21T10:50:16;17.15;;;4.00;;
36373;SDS011;22399;51.346;12.372;2023-02-21T10:53:22;14.48;;;4.82;;
36373;SDS011;22399;51.346;12.372;2023-02-21T10:56:05;17.48;;;4.10;;
36373;SDS011;22399;51.346;12.372;2023-02-21T10:58:51;17.02;;;4.40;;
36373;SDS011;22399;51.346;12.372;2023-02-21T11:01:30;18.58;;;5.43;;
36373;SDS011;22399;51.346;12.372;2023-02-21T11:04:21;18.25;;;4.95;;
36373;SDS011;22399;51.346;12.372;2023-02-21T11:06:56;13.63;;;4.30;;
36373;SDS011;22399;51.346;12.372;2023-02-21T11:09:32;13.23;;;3.22;;
36373;SDS011;22399;51.346;12.372;2023-02-21T11:12:03;16.17;;;4.60;;
36373;SDS011;22399;51.346;12.372;2023-02-21T11:14:43;20.10;;;4.70;;
36373;SDS011;22399;51.346;12.372;2023-02-21T11:17:30;13.38;;;4.00;;
36373;SDS011;22399;51.346;12.372;2023-02-21T11:20:03;10.77;;;3.35;;
36373;SDS011;22399;51.346;12.372;2023-02-21T11:22:42;9.45;;;3.22;;
36373;SDS011;22399;51.346;12.372;2023-02-21T11:25:15;7.45;;;2.85;;
36373;SDS011;22399;51.346;12.372;2023-02-21T11:27:58;7.00;;;3.03;;
36373;SDS011;22399;51.346;12.372;2023-02-21T11:30:30;11.13;;;3.30;;
36373;SDS011;22399;51.346;12.372;2023-02-21T11:33:04;11.00;;;3.10;;
36373;SDS011;22399;51.346;12.372;2023-02-21T11:35:36;9.95;;;3.33;;
36373;SDS011;22399;51.346;12.372;2023-02-21T11:41:00;8.60;;;3.33;;
36373;SDS011;22399;51.346;12.372;2023-02-21T11:43:29;10.60;;;3.33;;
36373;SDS011;22399;51.346;12.372;2023-02-21T11:46:03;9.10;;;2.35;;
36373;SDS011;22399;51.346;12.372;2023-02-21T11:48:46;9.65;;;3.03;;
36373;SDS011;22399;51.346;12.372;2023-02-21T11:51:32;13.32;;;3.25;;
36373;SDS011;22399;51.346;12.372;2023-02-21T11:54:09;10.95;;;3.15;;
36373;SDS011;22399;51.346;12.372;2023-02-21T11:56:41;7.97;;;2.88;;
36373;SDS011;22399;51.346;12.372;2023-02-21T11:59:19;9.15;;;2.72;;
36373;SDS011;22399;51.346;12.372;2023-02-21T12:02:03;10.10;;;3.90;;
36373;SDS011;22399;51.346;12.372;2023-02-21T12:04:54;12.85;;;3.08;;
36373;SDS011;22399;51.346;12.372;2023-02-21T12:07:35;8.80;;;2.65;;
36373;SDS011;22399;51.346;12.372;2023-02-21T12:10:12;7.15;;;2.88;;
36373;SDS011;22399;51.346;12.372;2023-02-21T12:12:58;8.45;;;2.53;;
36373;SDS011;22399;51.346;12.372;2023-02-21T12:15:40;6.03;;;2.15;;
36373;SDS011;22399;51.346;12.372;2023-02-21T12:18:22;5.82;;;2.15;;
36373;SDS011;22399;51.346;12.372;2023-02-21T12:21:05;9.32;;;2.88;;
36373;SDS011;22399;51.346;12.372;2023-02-21T12:23:54;8.32;;;3.00;;
36373;SDS011;22399;51.346;12.372;2023-02-21T12:26:30;7.60;;;3.00;;
36373;SDS011;22399;51.346;12.372;2023-02-21T12:29:14;10.88;;;3.05;;
36373;SDS011;22399;51.346;12.372;2023-02-21T12:31:56;8.48;;;2.63;;
36373;SDS011;22399;51.346;12.372;2023-02-21T12:34:46;12.57;;;3.05;;
36373;SDS011;22399;51.346;12.372;2023-02-21T12:37:28;9.98;;;3.22;;
36373;SDS011;22399;51.346;12.372;2023-02-21T12:40:07;12.05;;;3.03;;
36373;SDS011;22399;51.346;12.372;2023-02-21T12:42:54;5.57;;;2.10;;
36373;SDS011;22399;51.346;12.372;2023-02-21T12:45:36;6.75;;;2.08;;
36373;SDS011;22399;51.346;12.372;2023-02-21T12:48:15;18.80;;;3.40;;
36373;SDS011;22399;51.346;12.372;2023-02-21T12:50:48;10.50;;;3.33;;
36373;SDS011;22399;51.346;12.372;2023-02-21T12:53:21;6.97;;;2.75;;
36373;SDS011;22399;51.346;12.372;2023-02-21T12:55:57;8.27;;;2.45;;
36373;SDS011;22399;51.346;12.372;2023-02-21T12:58:30;10.75;;;3.10;;
36373;SDS011;22399;51.346;12.372;2023-02-21T13:01:04;13.07;;;3.92;;
36373;SDS011;22399;51.346;12.372;2023-02-21T13:03:39;8.32;;;3.17;;
36373;SDS011;22399;51.346;12.372;2023-02-21T13:06:16;9.10;;;3.30;;
36373;SDS011;22399;51.346;12.372;2023-02-21T13:08:52;15.43;;;3.78;;
36373;SDS011;22399;51.346;12.372;2023-02-21T13:11:30;12.38;;;4.43;;
36373;SDS011;22399;51.346;12.372;2023-02-21T13:14:05;15.65;;;4.85;;
36373;SDS011;22399;51.346;12.372;2023-02-21T13:16:37;13.95;;;3.85;;
36373;SDS011;22399;51.346;12.372;2023-02-21T13:19:07;13.35;;;3.78;;
36373;SDS011;22399;51.346;12.372;2023-02-21T13:21:44;13.50;;;4.05;;
36373;SDS011;22399;51.346;12.372;2023-02-21T13:24:32;8.07;;;2.88;;
36373;SDS011;22399;51.346;12.372;2023-02-21T13:27:24;12.05;;;3.45;;
36373;SDS011;22399;51.346;12.372;2023-02-21T13:30:20;10.15;;;2.97;;
36373;SDS011;22399;51.346;12.372;2023-02-21T13:32:53;9.73;;;3.58;;
36373;SDS011;22399;51.346;12.372;2023-02-21T13:35:28;11.48;;;3.38;;
36373;SDS011;22399;51.346;12.372;2023-02-21T13:40:33;11.98;;;3.58;;
36373;SDS011;22399;51.346;12.372;2023-02-21T13:43:05;13.05;;;3.13;;
36373;SDS011;22399;51.346;12.372;2023-02-21T13:45:38;11.00;;;3.78;;
36373;SDS011;22399;51.346;12.372;2023-02-21T13:48:17;25.30;;;4.28;;
36373;SDS011;22399;51.346;12.372;2023-02-21T13:50:49;13.02;;;3.88;;
36373;SDS011;22399;51.346;12.372;2023-02-21T13:53:19;11.23;;;3.47;;
36373;SDS011;22399;51.346;12.372;2023-02-21T13:58:41;12.57;;;3.10;;
36373;SDS011;22399;51.346;12.372;2023-02-21T14:01:15;10.43;;;4.20;;
36373;SDS011;22399;51.346;12.372;2023-02-21T14:07:46;15.70;;;3.65;;
36373;SDS011;22399;51.346;12.372;2023-02-21T14:10:27;13.35;;;3.95;;
36373;SDS011;22399;51.346;12.372;2023-02-21T14:13:18;8.68;;;3.03;;
36373;SDS011;22399;51.346;12.372;2023-02-21T14:15:49;9.20;;;3.10;;
36373;SDS011;22399;51.346;12.372;2023-02-21T14:18:24;8.17;;;3.03;;
36373;SDS011;22399;51.346;12.372;2023-02-21T14:20:55;9.75;;;3.45;;
36373;SDS011;22399;51.346;12.372;2023-02-21T14:23:30;13.93;;;3.58;;
36373;SDS011;22399;51.346;12.372;2023-02-21T14:26:05;10.82;;;3.13;;
36373;SDS011;22399;51.346;12.372;2023-02-21T14:31:45;11.25;;;3.28;;
36373;SDS011;22399;51.346;12.372;2023-02-21T14:34:19;5.82;;;2.67;;
36373;SDS011;22399;51.346;12.372;2023-02-21T14:36:51;13.77;;;3.53;;
36373;SDS011;22399;51.346;12.372;2023-02-21T14:39:23;11.38;;;3.45;;
36373;SDS011;22399;51.346;12.372;2023-02-21T14:42:16;10.48;;;2.80;;
36373;SDS011;22399;51.346;12.372;2023-02-21T14:48:00;6.20;;;2.45;;
36373;SDS011;22399;51.346;12.372;2023-02-21T14:50:54;6.57;;;2.35;;
36373;SDS011;22399;51.346;12.372;2023-02-21T14:53:56;15.90;;;2.67;;
36373;SDS011;22399;51.346;12.372;2023-02-21T14:59:42;7.63;;;1.88;;
36373;SDS011;22399;51.346;12.372;2023-02-21T15:02:24;3.33;;;1.50;;
36373;SDS011;22399;51.346;12.372;2023-02-21T15:05:03;2.75;;;1.00;;
36373;SDS011;22399;51.346;12.372;2023-02-21T15:07:48;4.57;;;1.90;;
36373;SDS011;22399;51.346;12.372;2023-02-21T15:10:23;5.38;;;2.40;;
36373;SDS011;22399;51.346;12.372;2023-02-21T15:12:55;8.98;;;2.53;;
36373;SDS011;22399;51.346;12.372;2023-02-21T15:15:25;6.35;;;1.67;;
36373;SDS011;22399;51.346;12.372;2023-02-21T15:18:00;4.85;;;1.63;;
36373;SDS011;22399;51.346;12.372;2023-02-21T15:20:33;6.55;;;1.67;;
36373;SDS011;22399;51.346;12.372;2023-02-21T15:23:09;6.57;;;1.70;;
36373;SDS011;22399;51.346;12.372;2023-02-21T15:25:39;4.53;;;1.55;;
36373;SDS011;22399;51.346;12.372;2023-02-21T15:28:18;6.68;;;2.42;;
36373;SDS011;22399;51.346;12.372;2023-02-21T15:30:55;9.77;;;2.83;;
36373;SDS011;22399;51.346;12.372;2023-02-21T15:33:27;8.50;;;2.42;;
36373;SDS011;22399;51.346;12.372;2023-02-21T15:35:59;10.55;;;3.20;;
36373;SDS011;22399;51.346;12.372;2023-02-21T15:38:31;9.35;;;2.67;;
36373;SDS011;22399;51.346;12.372;2023-02-21T15:41:02;8.63;;;2.75;;
36373;SDS011;22399;51.346;12.372;2023-02-21T15:43:38;8.93;;;2.50;;
36373;SDS011;22399;51.346;12.372;2023-02-21T15:46:14;8.10;;;2.10;;
36373;SDS011;22399;51.346;12.372;2023-02-21T15:48:47;6.13;;;2.80;;
36373;SDS011;22399;51.346;12.372;2023-02-21T15:51:17;5.03;;;2.17;;
36373;SDS011;22399;51.346;12.372;2023-02-21T15:56:35;4.03;;;1.55;;
36373;SDS011;22399;51.346;12.372;2023-02-21T15:59:07;10.35;;;2.20;;
36373;SDS011;22399;51.346;12.372;2023-02-21T16:01:43;8.43;;;2.22;;
36373;SDS011;22399;51.346;12.372;2023-02-21T16:04:19;8.55;;;2.30;;